Friedman Memorial Airport
KSUN : now visible

Airfield :











YOU CAN JOIN US ON...

 
LOGIN :

Register | Disclaimer

   EN    FR    IT 

 









Legend :    VFR   Marginal VFR   IFR   Intensive IFR   Very Intensive IFR
Visi :
Ceiling :
>= 8 km
>= 3000ft
5 to 8 km
1000 to 3000 ft
1500m to 5 km
500 to 1000 ft
800 to 1500m
200 to 500 ft
< 800m
< 200 ft
Symbols :   Thunderstorms  Fog  Heavy snow  Heavy precipitations  Wind > 20 kt






- Airport Elevation : 5318 ft


KSUN - Friedman Memorial

CURRENT METAR :
  • 111035Z AUTO 32007KT 10SM CLR 12/02 A3006 RMK AO2

EXPIRED METARs :
  • 111015Z AUTO 32008KT 10SM CLR 12/02 A3006 RMK AO2
  • 110955Z AUTO 32009G14KT 10SM CLR 12/03 A3006 RMK AO2
  • 110935Z AUTO 30007KT 10SM CLR 11/03 A3006 RMK AO2
  • 110915Z AUTO 30005KT 10SM CLR 13/03 A3007 RMK AO2
  • 110855Z AUTO 31006KT 10SM CLR 13/02 A3007 RMK AO2
  • 110835Z AUTO 32007KT 10SM CLR 13/03 A3006 RMK AO2
  • 110815Z AUTO 31007KT 10SM CLR 13/03 A3007 RMK AO2
  • 110755Z AUTO 30008KT 10SM CLR 13/03 A3007 RMK AO2

TAF KSUN
Valid from the 11 at 06:00 until the 12 at 12:00 UTC


110520Z 1106/1212 31008KT P6SM SKC
FM111700 14010KT P6SM SKC
FM112000 21012G22KT P6SM SCT080
FM120300 31008KT P6SM SKC
KZLC FIR / North America



MET'MAP, your aeronautical weather chart ! - Copyright ORBIFLY December 2007 - Disclaimer

ORBIFLY MET'MAP TEAM :

Programming & Development : Alexandra Zaïnal
Concept & original design : Baudouin d'Aumeries
Assistance for programming : Marc-Olivier Méhu
Technical & hardware support : Manuel Goepfert

Contact : metmap@orbifly.com




SOURCES & CREDITS :

   NOAA       Earth
Advisory